sensor_id;sensor_type;location;lat;lon;timestamp;pressure;altitude;pressure_sealevel;temperature;humidity
79362;BME280;68830;47.566;19.012;2023-08-06T00:02:53;98619.06;;;19.57;100.00
79362;BME280;68830;47.566;19.012;2023-08-06T00:05:56;98617.19;;;19.57;100.00
79362;BME280;68830;47.566;19.012;2023-08-06T00:08:58;98626.63;;;19.60;100.00
79362;BME280;68830;47.566;19.012;2023-08-06T00:12:01;98627.25;;;19.62;100.00
79362;BME280;68830;47.566;19.012;2023-08-06T00:15:03;98627.81;;;19.64;100.00
79362;BME280;68830;47.566;19.012;2023-08-06T00:18:06;98637.00;;;19.68;100.00
79362;BME280;68830;47.566;19.012;2023-08-06T00:21:09;98640.75;;;19.67;100.00
79362;BME280;68830;47.566;19.012;2023-08-06T00:24:11;98648.41;;;19.75;100.00
79362;BME280;68830;47.566;19.012;2023-08-06T00:27:14;98645.50;;;19.77;100.00
79362;BME280;68830;47.566;19.012;2023-08-06T00:30:16;98644.47;;;19.78;100.00
79362;BME280;68830;47.566;19.012;2023-08-06T00:33:18;98647.16;;;19.78;100.00
79362;BME280;68830;47.566;19.012;2023-08-06T00:36:21;98647.59;;;19.75;100.00
79362;BME280;68830;47.566;19.012;2023-08-06T00:39:24;98643.84;;;19.76;100.00
79362;BME280;68830;47.566;19.012;2023-08-06T00:42:25;98628.28;;;19.61;100.00
79362;BME280;68830;47.566;19.012;2023-08-06T00:45:27;98614.03;;;19.60;100.00
79362;BME280;68830;47.566;19.012;2023-08-06T00:48:31;98594.88;;;19.57;100.00
79362;BME280;68830;47.566;19.012;2023-08-06T00:51:34;98577.16;;;19.56;100.00
79362;BME280;68830;47.566;19.012;2023-08-06T00:54:37;98587.41;;;19.59;100.00
79362;BME280;68830;47.566;19.012;2023-08-06T00:57:39;98591.50;;;19.61;100.00
79362;BME280;68830;47.566;19.012;2023-08-06T01:00:41;98583.66;;;19.60;100.00
79362;BME280;68830;47.566;19.012;2023-08-06T01:03:43;98576.34;;;19.55;100.00
79362;BME280;68830;47.566;19.012;2023-08-06T01:06:48;98573.53;;;19.50;100.00
79362;BME280;68830;47.566;19.012;2023-08-06T01:09:55;98573.28;;;19.52;100.00
79362;BME280;68830;47.566;19.012;2023-08-06T01:13:08;98581.03;;;19.48;100.00
79362;BME280;68830;47.566;19.012;2023-08-06T01:16:15;98581.72;;;19.44;100.00
79362;BME280;68830;47.566;19.012;2023-08-06T01:19:18;98570.75;;;19.45;100.00
79362;BME280;68830;47.566;19.012;2023-08-06T01:22:22;98564.78;;;19.43;100.00
79362;BME280;68830;47.566;19.012;2023-08-06T01:25:29;98566.91;;;19.41;100.00
79362;BME280;68830;47.566;19.012;2023-08-06T01:28:40;98549.41;;;19.38;100.00
79362;BME280;68830;47.566;19.012;2023-08-06T01:31:48;98547.28;;;19.40;100.00
79362;BME280;68830;47.566;19.012;2023-08-06T01:34:54;98550.72;;;19.36;100.00
79362;BME280;68830;47.566;19.012;2023-08-06T01:37:58;98545.47;;;19.29;100.00
79362;BME280;68830;47.566;19.012;2023-08-06T01:41:01;98549.22;;;19.28;100.00
79362;BME280;68830;47.566;19.012;2023-08-06T01:44:04;98545.88;;;19.21;100.00
79362;BME280;68830;47.566;19.012;2023-08-06T01:47:06;98539.44;;;19.22;100.00
79362;BME280;68830;47.566;19.012;2023-08-06T01:50:08;98536.19;;;19.20;100.00
79362;BME280;68830;47.566;19.012;2023-08-06T01:53:12;98532.69;;;19.20;100.00
79362;BME280;68830;47.566;19.012;2023-08-06T01:56:14;98521.94;;;19.20;100.00
79362;BME280;68830;47.566;19.012;2023-08-06T01:59:16;98522.75;;;19.20;100.00
79362;BME280;68830;47.566;19.012;2023-08-06T02:02:18;98512.03;;;19.20;100.00
79362;BME280;68830;47.566;19.012;2023-08-06T02:05:21;98501.06;;;19.22;100.00
79362;BME280;68830;47.566;19.012;2023-08-06T02:08:24;98488.44;;;19.22;100.00
79362;BME280;68830;47.566;19.012;2023-08-06T02:11:26;98488.19;;;19.24;100.00
79362;BME280;68830;47.566;19.012;2023-08-06T02:14:28;98480.41;;;19.22;100.00
79362;BME280;68830;47.566;19.012;2023-08-06T02:17:30;98475.59;;;19.24;100.00
79362;BME280;68830;47.566;19.012;2023-08-06T02:20:32;98478.59;;;19.28;100.00
79362;BME280;68830;47.566;19.012;2023-08-06T02:23:36;98482.09;;;19.28;100.00
79362;BME280;68830;47.566;19.012;2023-08-06T02:26:38;98476.03;;;19.33;100.00
79362;BME280;68830;47.566;19.012;2023-08-06T02:29:40;98459.16;;;19.21;100.00
79362;BME280;68830;47.566;19.012;2023-08-06T02:32:43;98463.16;;;19.18;100.00
79362;BME280;68830;47.566;19.012;2023-08-06T02:35:45;98456.59;;;19.14;100.00
79362;BME280;68830;47.566;19.012;2023-08-06T02:38:49;98456.03;;;19.12;100.00
79362;BME280;68830;47.566;19.012;2023-08-06T02:41:51;98452.78;;;19.10;100.00
79362;BME280;68830;47.566;19.012;2023-08-06T02:44:54;98456.84;;;19.13;100.00
79362;BME280;68830;47.566;19.012;2023-08-06T02:47:59;98447.66;;;19.08;100.00
79362;BME280;68830;47.566;19.012;2023-08-06T02:51:01;98448.97;;;19.06;100.00
79362;BME280;68830;47.566;19.012;2023-08-06T02:54:05;98463.75;;;19.08;100.00
79362;BME280;68830;47.566;19.012;2023-08-06T02:57:07;98459.94;;;19.04;100.00
79362;BME280;68830;47.566;19.012;2023-08-06T03:00:10;98457.81;;;19.06;100.00
79362;BME280;68830;47.566;19.012;2023-08-06T03:03:13;98447.91;;;19.07;100.00
79362;BME280;68830;47.566;19.012;2023-08-06T03:06:15;98444.16;;;19.08;100.00
79362;BME280;68830;47.566;19.012;2023-08-06T03:09:18;98443.09;;;19.09;100.00
79362;BME280;68830;47.566;19.012;2023-08-06T03:12:21;98448.22;;;19.10;100.00
79362;BME280;68830;47.566;19.012;2023-08-06T03:15:23;98448.91;;;19.18;100.00
79362;BME280;68830;47.566;19.012;2023-08-06T03:18:25;98443.53;;;19.18;100.00
79362;BME280;68830;47.566;19.012;2023-08-06T03:21:28;98446.22;;;19.18;100.00
79362;BME280;68830;47.566;19.012;2023-08-06T03:24:31;98448.44;;;19.21;100.00
79362;BME280;68830;47.566;19.012;2023-08-06T03:27:33;98444.69;;;19.22;100.00
79362;BME280;68830;47.566;19.012;2023-08-06T03:30:35;98442.25;;;19.20;100.00
79362;BME280;68830;47.566;19.012;2023-08-06T03:33:37;98441.91;;;19.17;100.00
79362;BME280;68830;47.566;19.012;2023-08-06T03:36:39;98440.28;;;19.16;100.00
79362;BME280;68830;47.566;19.012;2023-08-06T03:39:42;98429.19;;;19.12;100.00
79362;BME280;68830;47.566;19.012;2023-08-06T03:42:45;98437.00;;;19.14;100.00
79362;BME280;68830;47.566;19.012;2023-08-06T03:45:47;98434.94;;;19.16;100.00
79362;BME280;68830;47.566;19.012;2023-08-06T03:48:49;98437.38;;;19.17;100.00
79362;BME280;68830;47.566;19.012;2023-08-06T03:51:51;98430.94;;;19.18;100.00
79362;BME280;68830;47.566;19.012;2023-08-06T03:54:56;98433.19;;;19.09;100.00
79362;BME280;68830;47.566;19.012;2023-08-06T03:57:57;98429.38;;;19.05;100.00
79362;BME280;68830;47.566;19.012;2023-08-06T04:01:01;98431.16;;;19.00;100.00
79362;BME280;68830;47.566;19.012;2023-08-06T04:04:04;98428.13;;;18.96;100.00
79362;BME280;68830;47.566;19.012;2023-08-06T04:07:06;98431.53;;;18.92;100.00
79362;BME280;68830;47.566;19.012;2023-08-06T04:10:10;98431.88;;;18.84;100.00
79362;BME280;68830;47.566;19.012;2023-08-06T04:13:12;98417.00;;;18.76;100.00
79362;BME280;68830;47.566;19.012;2023-08-06T04:16:14;98418.44;;;18.67;100.00
79362;BME280;68830;47.566;19.012;2023-08-06T04:19:16;98412.59;;;18.70;100.00
79362;BME280;68830;47.566;19.012;2023-08-06T04:22:20;98411.19;;;18.67;100.00
79362;BME280;68830;47.566;19.012;2023-08-06T04:25:23;98407.13;;;18.65;100.00
79362;BME280;68830;47.566;19.012;2023-08-06T04:28:26;98404.44;;;18.65;100.00
79362;BME280;68830;47.566;19.012;2023-08-06T04:31:29;98394.97;;;18.62;100.00
79362;BME280;68830;47.566;19.012;2023-08-06T04:34:31;98399.44;;;18.57;100.00
79362;BME280;68830;47.566;19.012;2023-08-06T04:37:33;98404.69;;;18.63;100.00
79362;BME280;68830;47.566;19.012;2023-08-06T04:40:36;98403.50;;;18.59;100.00
79362;BME280;68830;47.566;19.012;2023-08-06T04:43:39;98402.00;;;18.51;100.00
79362;BME280;68830;47.566;19.012;2023-08-06T04:46:41;98401.75;;;18.53;100.00
79362;BME280;68830;47.566;19.012;2023-08-06T04:49:43;98393.38;;;18.49;100.00
79362;BME280;68830;47.566;19.012;2023-08-06T04:52:45;98389.56;;;18.45;100.00
79362;BME280;68830;47.566;19.012;2023-08-06T04:55:48;98397.38;;;18.47;100.00
79362;BME280;68830;47.566;19.012;2023-08-06T04:58:51;98392.72;;;18.42;100.00
79362;BME280;68830;47.566;19.012;2023-08-06T05:01:53;98384.78;;;18.47;100.00
79362;BME280;68830;47.566;19.012;2023-08-06T05:04:56;98382.00;;;18.42;100.00
79362;BME280;68830;47.566;19.012;2023-08-06T05:07:58;98380.72;;;18.45;100.00
79362;BME280;68830;47.566;19.012;2023-08-06T05:11:01;98385.50;;;18.43;100.00
79362;BME280;68830;47.566;19.012;2023-08-06T05:14:04;98375.34;;;18.45;100.00
79362;BME280;68830;47.566;19.012;2023-08-06T05:17:06;98372.56;;;18.40;100.00
79362;BME280;68830;47.566;19.012;2023-08-06T05:20:09;98378.75;;;18.40;100.00
79362;BME280;68830;47.566;19.012;2023-08-06T05:23:11;98376.88;;;18.41;100.00
79362;BME280;68830;47.566;19.012;2023-08-06T05:26:15;98373.25;;;18.35;100.00
79362;BME280;68830;47.566;19.012;2023-08-06T05:29:20;98383.53;;;18.38;100.00
79362;BME280;68830;47.566;19.012;2023-08-06T05:32:22;98386.22;;;18.38;100.00
79362;BME280;68830;47.566;19.012;2023-08-06T05:35:24;98381.88;;;18.37;100.00
79362;BME280;68830;47.566;19.012;2023-08-06T05:38:26;98386.44;;;18.37;100.00
79362;BME280;68830;47.566;19.012;2023-08-06T05:41:30;98382.59;;;18.33;100.00
79362;BME280;68830;47.566;19.012;2023-08-06T05:44:32;98383.22;;;18.23;100.00
79362;BME280;68830;47.566;19.012;2023-08-06T05:47:34;98377.88;;;18.23;100.00
79362;BME280;68830;47.566;19.012;2023-08-06T05:50:36;98383.44;;;18.21;100.00
79362;BME280;68830;47.566;19.012;2023-08-06T05:53:38;98378.44;;;18.25;100.00
79362;BME280;68830;47.566;19.012;2023-08-06T05:56:41;98376.81;;;18.24;100.00
79362;BME280;68830;47.566;19.012;2023-08-06T05:59:43;98371.69;;;18.23;100.00
79362;BME280;68830;47.566;19.012;2023-08-06T06:02:45;98370.28;;;18.20;100.00
79362;BME280;68830;47.566;19.012;2023-08-06T06:05:48;98358.50;;;18.21;100.00
79362;BME280;68830;47.566;19.012;2023-08-06T06:08:50;98352.69;;;18.24;100.00
79362;BME280;68830;47.566;19.012;2023-08-06T06:11:53;98358.28;;;18.23;100.00
79362;BME280;68830;47.566;19.012;2023-08-06T06:14:56;98359.69;;;18.25;100.00
79362;BME280;68830;47.566;19.012;2023-08-06T06:17:58;98361.31;;;18.26;100.00
79362;BME280;68830;47.566;19.012;2023-08-06T06:21:00;98355.13;;;18.26;100.00
79362;BME280;68830;47.566;19.012;2023-08-06T06:24:02;98356.28;;;18.30;100.00
79362;BME280;68830;47.566;19.012;2023-08-06T06:27:07;98364.97;;;18.37;100.00
79362;BME280;68830;47.566;19.012;2023-08-06T06:30:10;98352.88;;;18.34;100.00
79362;BME280;68830;47.566;19.012;2023-08-06T06:33:13;98356.25;;;18.41;100.00
79362;BME280;68830;47.566;19.012;2023-08-06T06:36:16;98360.88;;;18.46;100.00
79362;BME280;68830;47.566;19.012;2023-08-06T06:39:18;98376.63;;;18.42;100.00
79362;BME280;68830;47.566;19.012;2023-08-06T06:42:21;98387.47;;;18.36;100.00
79362;BME280;68830;47.566;19.012;2023-08-06T06:45:24;98389.72;;;18.27;100.00
79362;BME280;68830;47.566;19.012;2023-08-06T06:48:27;98411.38;;;18.37;100.00
79362;BME280;68830;47.566;19.012;2023-08-06T06:51:29;98412.31;;;18.31;100.00
79362;BME280;68830;47.566;19.012;2023-08-06T06:54:33;98411.28;;;18.20;100.00
79362;BME280;68830;47.566;19.012;2023-08-06T06:57:37;98410.38;;;18.15;100.00
79362;BME280;68830;47.566;19.012;2023-08-06T07:00:39;98403.53;;;18.07;100.00
79362;BME280;68830;47.566;19.012;2023-08-06T07:03:41;98371.28;;;17.14;100.00
79362;BME280;68830;47.566;19.012;2023-08-06T07:06:43;98407.38;;;17.23;100.00
79362;BME280;68830;47.566;19.012;2023-08-06T07:09:45;98399.06;;;17.54;100.00
79362;BME280;68830;47.566;19.012;2023-08-06T07:12:48;98399.91;;;17.78;100.00
79362;BME280;68830;47.566;19.012;2023-08-06T07:15:51;98407.13;;;17.89;100.00
79362;BME280;68830;47.566;19.012;2023-08-06T07:18:53;98407.34;;;18.00;100.00
79362;BME280;68830;47.566;19.012;2023-08-06T07:21:56;98415.72;;;18.03;100.00
79362;BME280;68830;47.566;19.012;2023-08-06T07:24:58;98422.47;;;18.06;100.00
79362;BME280;68830;47.566;19.012;2023-08-06T07:28:01;98435.06;;;18.05;100.00
79362;BME280;68830;47.566;19.012;2023-08-06T07:31:03;98437.63;;;18.00;100.00
79362;BME280;68830;47.566;19.012;2023-08-06T07:34:10;98433.09;;;18.01;100.00
79362;BME280;68830;47.566;19.012;2023-08-06T07:37:11;98438.09;;;17.97;100.00
79362;BME280;68830;47.566;19.012;2023-08-06T07:40:14;98433.56;;;17.98;100.00
79362;BME280;68830;47.566;19.012;2023-08-06T07:43:17;98427.97;;;17.99;100.00
79362;BME280;68830;47.566;19.012;2023-08-06T07:46:20;98418.53;;;17.97;100.00
79362;BME280;68830;47.566;19.012;2023-08-06T07:49:22;98419.34;;;17.97;100.00
79362;BME280;68830;47.566;19.012;2023-08-06T07:52:24;98422.38;;;18.01;100.00
79362;BME280;68830;47.566;19.012;2023-08-06T07:55:26;98414.09;;;18.02;100.00
79362;BME280;68830;47.566;19.012;2023-08-06T07:58:29;98414.56;;;17.99;100.00
79362;BME280;68830;47.566;19.012;2023-08-06T08:01:31;98348.91;;;17.50;100.00
79362;BME280;68830;47.566;19.012;2023-08-06T08:04:34;98360.22;;;16.68;100.00
79362;BME280;68830;47.566;19.012;2023-08-06T08:07:36;98349.22;;;16.77;100.00
79362;BME280;68830;47.566;19.012;2023-08-06T08:10:38;98363.19;;;16.79;100.00
79362;BME280;68830;47.566;19.012;2023-08-06T08:13:41;98345.56;;;16.89;100.00
79362;BME280;68830;47.566;19.012;2023-08-06T08:16:43;98342.06;;;16.89;100.00
79362;BME280;68830;47.566;19.012;2023-08-06T08:19:46;98348.91;;;16.85;100.00
79362;BME280;68830;47.566;19.012;2023-08-06T08:22:48;98334.47;;;16.74;100.00
79362;BME280;68830;47.566;19.012;2023-08-06T08:25:51;98337.50;;;16.78;100.00
79362;BME280;68830;47.566;19.012;2023-08-06T08:28:56;98359.38;;;16.86;100.00
79362;BME280;68830;47.566;19.012;2023-08-06T08:31:58;98421.69;;;17.17;100.00
79362;BME280;68830;47.566;19.012;2023-08-06T08:35:00;98432.81;;;17.55;100.00
79362;BME280;68830;47.566;19.012;2023-08-06T08:38:02;98435.06;;;17.82;100.00
79362;BME280;68830;47.566;19.012;2023-08-06T08:41:05;98431.13;;;17.96;100.00
79362;BME280;68830;47.566;19.012;2023-08-06T08:44:09;98408.88;;;18.07;100.00
79362;BME280;68830;47.566;19.012;2023-08-06T08:47:13;98413.03;;;18.15;100.00
79362;BME280;68830;47.566;19.012;2023-08-06T08:50:17;98403.84;;;18.23;100.00
79362;BME280;68830;47.566;19.012;2023-08-06T08:53:21;98407.91;;;18.25;100.00
79362;BME280;68830;47.566;19.012;2023-08-06T08:56:24;98412.66;;;18.35;100.00
79362;BME280;68830;47.566;19.012;2023-08-06T08:59:28;98406.78;;;18.49;100.00
79362;BME280;68830;47.566;19.012;2023-08-06T09:02:31;98381.28;;;17.83;100.00
79362;BME280;68830;47.566;19.012;2023-08-06T09:05:35;98377.63;;;17.43;100.00
79362;BME280;68830;47.566;19.012;2023-08-06T09:08:45;98383.00;;;17.54;100.00
79362;BME280;68830;47.566;19.012;2023-08-06T09:11:50;98377.31;;;17.74;100.00
79362;BME280;68830;47.566;19.012;2023-08-06T09:14:54;98395.59;;;18.01;100.00
79362;BME280;68830;47.566;19.012;2023-08-06T09:17:56;98370.66;;;17.88;100.00
79362;BME280;68830;47.566;19.012;2023-08-06T09:20:58;98362.88;;;17.75;100.00
79362;BME280;68830;47.566;19.012;2023-08-06T09:24:00;98340.53;;;17.70;100.00
79362;BME280;68830;47.566;19.012;2023-08-06T09:27:02;98334.25;;;17.64;100.00
79362;BME280;68830;47.566;19.012;2023-08-06T09:30:07;98334.91;;;17.59;100.00
79362;BME280;68830;47.566;19.012;2023-08-06T09:33:10;98365.06;;;17.67;100.00
79362;BME280;68830;47.566;19.012;2023-08-06T09:36:12;98369.53;;;17.84;100.00
79362;BME280;68830;47.566;19.012;2023-08-06T09:39:15;98390.47;;;17.76;100.00
79362;BME280;68830;47.566;19.012;2023-08-06T09:42:18;98377.88;;;17.65;100.00
79362;BME280;68830;47.566;19.012;2023-08-06T09:45:22;98397.00;;;17.68;100.00
79362;BME280;68830;47.566;19.012;2023-08-06T09:48:24;98403.53;;;17.30;100.00
79362;BME280;68830;47.566;19.012;2023-08-06T09:51:27;98429.38;;;17.25;100.00
79362;BME280;68830;47.566;19.012;2023-08-06T09:54:29;98415.13;;;17.13;100.00
79362;BME280;68830;47.566;19.012;2023-08-06T09:57:32;98400.72;;;17.14;100.00
79362;BME280;68830;47.566;19.012;2023-08-06T10:00:36;98422.50;;;17.29;100.00
79362;BME280;68830;47.566;19.012;2023-08-06T10:03:40;98425.09;;;17.36;100.00
79362;BME280;68830;47.566;19.012;2023-08-06T10:06:46;98440.59;;;17.57;100.00
79362;BME280;68830;47.566;19.012;2023-08-06T10:09:49;98420.22;;;17.56;100.00
79362;BME280;68830;47.566;19.012;2023-08-06T10:12:54;98430.28;;;17.72;100.00
79362;BME280;68830;47.566;19.012;2023-08-06T10:16:00;98416.00;;;17.78;100.00
79362;BME280;68830;47.566;19.012;2023-08-06T10:19:09;98430.16;;;17.67;100.00
79362;BME280;68830;47.566;19.012;2023-08-06T10:22:14;98430.63;;;17.76;100.00
79362;BME280;68830;47.566;19.012;2023-08-06T10:25:16;98441.66;;;17.56;100.00
79362;BME280;68830;47.566;19.012;2023-08-06T10:28:19;98437.34;;;17.55;100.00
79362;BME280;68830;47.566;19.012;2023-08-06T10:31:54;98459.97;;;17.71;100.00
79362;BME280;68830;47.566;19.012;2023-08-06T10:34:59;98440.75;;;17.74;100.00
79362;BME280;68830;47.566;19.012;2023-08-06T10:38:07;98424.47;;;17.87;100.00
79362;BME280;68830;47.566;19.012;2023-08-06T10:41:15;98437.88;;;18.10;100.00
79362;BME280;68830;47.566;19.012;2023-08-06T10:44:17;98446.25;;;18.26;100.00
79362;BME280;68830;47.566;19.012;2023-08-06T10:47:27;98441.47;;;18.16;100.00
79362;BME280;68830;47.566;19.012;2023-08-06T10:50:31;98448.06;;;18.48;100.00
79362;BME280;68830;47.566;19.012;2023-08-06T10:53:33;98452.13;;;18.51;99.79
79362;BME280;68830;47.566;19.012;2023-08-06T10:56:40;98460.31;;;18.21;100.00
79362;BME280;68830;47.566;19.012;2023-08-06T10:59:42;98453.56;;;18.30;99.15
79362;BME280;68830;47.566;19.012;2023-08-06T11:02:47;98457.53;;;18.16;99.29
79362;BME280;68830;47.566;19.012;2023-08-06T11:05:51;98461.13;;;18.21;98.57
79362;BME280;68830;47.566;19.012;2023-08-06T11:08:54;98447.47;;;18.46;99.75
79362;BME280;68830;47.566;19.012;2023-08-06T11:11:57;98450.25;;;18.51;98.23
79362;BME280;68830;47.566;19.012;2023-08-06T11:14:59;98451.44;;;18.96;97.33
79362;BME280;68830;47.566;19.012;2023-08-06T11:18:04;98456.69;;;19.02;97.70
79362;BME280;68830;47.566;19.012;2023-08-06T11:21:06;98453.06;;;19.25;97.27
79362;BME280;68830;47.566;19.012;2023-08-06T11:24:10;98457.28;;;19.21;95.17
79362;BME280;68830;47.566;19.012;2023-08-06T11:27:12;98465.22;;;18.99;95.85
79362;BME280;68830;47.566;19.012;2023-08-06T11:30:15;98472.00;;;18.38;97.67
79362;BME280;68830;47.566;19.012;2023-08-06T11:33:21;98465.47;;;18.11;98.23
79362;BME280;68830;47.566;19.012;2023-08-06T11:36:30;98461.97;;;18.10;98.92
79362;BME280;68830;47.566;19.012;2023-08-06T11:39:33;98442.38;;;18.21;98.62
79362;BME280;68830;47.566;19.012;2023-08-06T11:42:35;98449.41;;;18.23;97.93
79362;BME280;68830;47.566;19.012;2023-08-06T11:45:38;98454.72;;;18.46;98.49
79362;BME280;68830;47.566;19.012;2023-08-06T11:48:52;98442.09;;;18.58;97.94
79362;BME280;68830;47.566;19.012;2023-08-06T11:51:54;98452.84;;;18.70;96.15
79362;BME280;68830;47.566;19.012;2023-08-06T11:55:00;98452.50;;;18.95;95.63
79362;BME280;68830;47.566;19.012;2023-08-06T11:58:05;98442.06;;;19.10;94.97
79362;BME280;68830;47.566;19.012;2023-08-06T12:01:07;98447.94;;;19.24;92.98
79362;BME280;68830;47.566;19.012;2023-08-06T12:04:10;98458.75;;;19.29;93.57
79362;BME280;68830;47.566;19.012;2023-08-06T12:07:12;98473.88;;;19.18;93.38
79362;BME280;68830;47.566;19.012;2023-08-06T12:10:16;98468.34;;;18.96;94.39
79362;BME280;68830;47.566;19.012;2023-08-06T12:13:18;98456.88;;;18.84;94.57
79362;BME280;68830;47.566;19.012;2023-08-06T12:16:20;98460.69;;;18.88;96.41
79362;BME280;68830;47.566;19.012;2023-08-06T12:19:25;98475.53;;;18.79;96.52
79362;BME280;68830;47.566;19.012;2023-08-06T12:22:30;98473.34;;;18.64;96.85
79362;BME280;68830;47.566;19.012;2023-08-06T12:25:40;98479.97;;;18.62;97.92
79362;BME280;68830;47.566;19.012;2023-08-06T12:28:42;98478.13;;;18.74;95.22
79362;BME280;68830;47.566;19.012;2023-08-06T12:31:44;98492.00;;;18.71;94.43
79362;BME280;68830;47.566;19.012;2023-08-06T12:34:47;98492.34;;;18.74;96.04
79362;BME280;68830;47.566;19.012;2023-08-06T12:37:54;98485.38;;;19.02;95.00
79362;BME280;68830;47.566;19.012;2023-08-06T12:40:56;98477.47;;;18.95;94.37
79362;BME280;68830;47.566;19.012;2023-08-06T12:43:58;98485.38;;;19.02;96.00
79362;BME280;68830;47.566;19.012;2023-08-06T12:47:00;98485.38;;;19.02;94.04
79362;BME280;68830;47.566;19.012;2023-08-06T12:50:04;98493.59;;;19.40;95.83
79362;BME280;68830;47.566;19.012;2023-08-06T12:53:09;98512.34;;;18.95;93.29
79362;BME280;68830;47.566;19.012;2023-08-06T12:56:12;98507.22;;;18.82;92.79
79362;BME280;68830;47.566;19.012;2023-08-06T12:59:15;98490.50;;;18.63;93.91
79362;BME280;68830;47.566;19.012;2023-08-06T13:02:17;98505.00;;;18.91;94.64
79362;BME280;68830;47.566;19.012;2023-08-06T13:05:23;98511.25;;;18.44;97.89
79362;BME280;68830;47.566;19.012;2023-08-06T13:08:26;98508.94;;;18.25;98.34
79362;BME280;68830;47.566;19.012;2023-08-06T13:11:30;98492.81;;;18.48;99.17
79362;BME280;68830;47.566;19.012;2023-08-06T13:14:33;98515.09;;;18.37;96.76
79362;BME280;68830;47.566;19.012;2023-08-06T13:17:35;98519.41;;;18.26;97.33
79362;BME280;68830;47.566;19.012;2023-08-06T13:20:39;98513.59;;;18.41;96.22
79362;BME280;68830;47.566;19.012;2023-08-06T13:23:43;98499.69;;;18.56;94.62
79362;BME280;68830;47.566;19.012;2023-08-06T13:26:46;98509.94;;;18.59;94.45
79362;BME280;68830;47.566;19.012;2023-08-06T13:29:48;98530.81;;;18.57;94.46
79362;BME280;68830;47.566;19.012;2023-08-06T13:32:51;98533.72;;;18.67;96.24
79362;BME280;68830;47.566;19.012;2023-08-06T13:35:54;98541.44;;;18.40;97.72
79362;BME280;68830;47.566;19.012;2023-08-06T13:38:57;98557.03;;;18.19;100.00
79362;BME280;68830;47.566;19.012;2023-08-06T13:42:00;98559.91;;;18.06;100.00
79362;BME280;68830;47.566;19.012;2023-08-06T13:45:02;98560.59;;;17.90;100.00
79362;BME280;68830;47.566;19.012;2023-08-06T13:48:06;98573.28;;;17.83;100.00
79362;BME280;68830;47.566;19.012;2023-08-06T13:51:11;98583.13;;;17.71;100.00
79362;BME280;68830;47.566;19.012;2023-08-06T13:54:13;98593.28;;;17.50;100.00
79362;BME280;68830;47.566;19.012;2023-08-06T13:57:15;98578.94;;;17.45;100.00
79362;BME280;68830;47.566;19.012;2023-08-06T14:00:19;98579.56;;;17.58;100.00
79362;BME280;68830;47.566;19.012;2023-08-06T14:03:22;98569.84;;;17.46;100.00
79362;BME280;68830;47.566;19.012;2023-08-06T14:06:27;98548.00;;;17.49;100.00
79362;BME280;68830;47.566;19.012;2023-08-06T14:09:29;98577.56;;;17.72;100.00
79362;BME280;68830;47.566;19.012;2023-08-06T14:12:32;98572.78;;;17.74;100.00
79362;BME280;68830;47.566;19.012;2023-08-06T14:15:35;98592.16;;;17.88;100.00
79362;BME280;68830;47.566;19.012;2023-08-06T14:18:37;98592.50;;;17.80;100.00
79362;BME280;68830;47.566;19.012;2023-08-06T14:21:42;98600.75;;;17.78;100.00
79362;BME280;68830;47.566;19.012;2023-08-06T14:24:44;98588.41;;;17.77;100.00
79362;BME280;68830;47.566;19.012;2023-08-06T14:27:46;98593.97;;;17.76;100.00
79362;BME280;68830;47.566;19.012;2023-08-06T14:30:50;98597.63;;;17.81;100.00
79362;BME280;68830;47.566;19.012;2023-08-06T14:33:52;98587.59;;;17.88;100.00
79362;BME280;68830;47.566;19.012;2023-08-06T14:36:57;98602.16;;;17.81;100.00
79362;BME280;68830;47.566;19.012;2023-08-06T14:40:01;98589.25;;;17.89;100.00
79362;BME280;68830;47.566;19.012;2023-08-06T14:43:05;98589.19;;;18.08;99.76
79362;BME280;68830;47.566;19.012;2023-08-06T14:46:08;98600.81;;;18.02;98.85
79362;BME280;68830;47.566;19.012;2023-08-06T14:49:12;98587.19;;;18.03;98.91
79362;BME280;68830;47.566;19.012;2023-08-06T14:52:18;98605.34;;;18.01;100.00
79362;BME280;68830;47.566;19.012;2023-08-06T14:55:24;98617.22;;;18.05;99.46
79362;BME280;68830;47.566;19.012;2023-08-06T14:58:27;98616.19;;;18.06;98.86
79362;BME280;68830;47.566;19.012;2023-08-06T15:01:30;98632.50;;;18.05;98.27
79362;BME280;68830;47.566;19.012;2023-08-06T15:04:33;98622.97;;;18.09;97.23
79362;BME280;68830;47.566;19.012;2023-08-06T15:07:38;98616.22;;;18.18;98.08
79362;BME280;68830;47.566;19.012;2023-08-06T15:10:41;98628.34;;;18.20;97.26
79362;BME280;68830;47.566;19.012;2023-08-06T15:13:43;98627.50;;;18.08;97.59
79362;BME280;68830;47.566;19.012;2023-08-06T15:16:46;98637.34;;;18.26;96.56
79362;BME280;68830;47.566;19.012;2023-08-06T15:19:49;98632.34;;;18.41;96.38
79362;BME280;68830;47.566;19.012;2023-08-06T15:22:52;98631.16;;;18.37;95.52
79362;BME280;68830;47.566;19.012;2023-08-06T15:25:56;98640.03;;;18.49;95.97
79362;BME280;68830;47.566;19.012;2023-08-06T15:28:58;98629.56;;;18.60;94.77
79362;BME280;68830;47.566;19.012;2023-08-06T15:32:01;98626.34;;;18.69;94.41
79362;BME280;68830;47.566;19.012;2023-08-06T15:35:03;98650.69;;;18.79;94.43
79362;BME280;68830;47.566;19.012;2023-08-06T15:38:10;98627.69;;;18.95;92.81
79362;BME280;68830;47.566;19.012;2023-08-06T15:41:13;98634.94;;;19.06;92.15
79362;BME280;68830;47.566;19.012;2023-08-06T15:44:16;98652.91;;;19.06;92.97
79362;BME280;68830;47.566;19.012;2023-08-06T15:47:19;98630.16;;;18.97;93.21
79362;BME280;68830;47.566;19.012;2023-08-06T15:50:22;98643.56;;;18.97;91.98